Time;durP1;ratioP1;P1;durP2;ratioP2;P2;SDS_P1;SDS_P2;PMS_P1;PMS_P2;Temp;Humidity;BMP_temperature;BMP_pressure;BME280_temperature;BME280_humidity;BME280_pressure;Samples;Min_cycle;Max_cycle;Signal;HPM_P1;HPM_P2
2023/09/04 00:01:45;;;;;;;1.23;1.13;;;15.80;99.90;;;;;;4080986;29;20043;-64
2023/09/04 00:03:46;;;;;;;1.48;1.20;;;15.80;99.90;;;;;;4079669;29;20103;-61
2023/09/04 00:05:48;;;;;;;1.80;1.00;;;15.80;99.90;;;;;;4081009;29;20464;-61
2023/09/04 00:07:50;;;;;;;1.63;1.52;;;15.90;99.90;;;;;;4079918;29;20023;-62
2023/09/04 00:09:51;;;;;;;3.47;1.25;;;15.90;99.90;;;;;;4081138;29;20484;-64
2023/09/04 00:11:53;;;;;;;2.58;1.27;;;16.00;99.90;;;;;;4079810;29;20110;-64
2023/09/04 00:13:55;;;;;;;2.65;1.25;;;16.00;99.90;;;;;;4081037;29;20452;-64
2023/09/04 00:15:56;;;;;;;1.15;1.15;;;16.00;99.90;;;;;;4079627;29;20039;-64
2023/09/04 00:17:57;;;;;;;2.97;1.48;;;16.10;99.90;;;;;;4080834;29;20032;-61
2023/09/04 00:19:58;;;;;;;2.85;1.42;;;16.10;99.90;;;;;;4080020;29;20035;-65
2023/09/04 00:21:59;;;;;;;2.28;1.42;;;16.10;99.90;;;;;;4080201;29;20035;-65
2023/09/04 00:24:00;;;;;;;1.48;1.38;;;16.00;99.90;;;;;;4080039;29;20055;-65
2023/09/04 00:26:02;;;;;;;2.85;1.40;;;16.00;99.90;;;;;;4079906;29;20103;-64
2023/09/04 00:28:03;;;;;;;3.17;1.23;;;16.00;99.90;;;;;;4080565;29;20084;-62
2023/09/04 00:30:05;;;;;;;1.30;1.20;;;15.90;99.90;;;;;;4079564;29;20048;-62
2023/09/04 00:32:07;;;;;;;1.63;1.10;;;15.90;99.90;;;;;;4080086;29;20091;-62
2023/09/04 00:34:08;;;;;;;1.38;1.27;;;15.90;99.90;;;;;;4079741;29;20516;-67
2023/09/04 00:36:09;;;;;;;3.28;1.38;;;15.80;99.90;;;;;;4080198;29;20102;-65
2023/09/04 00:38:10;;;;;;;1.45;1.35;;;15.80;99.90;;;;;;4079540;29;20039;-63
2023/09/04 00:40:11;;;;;;;3.30;1.10;;;15.80;99.90;;;;;;4080354;29;20055;-65
2023/09/04 00:42:15;;;;;;;1.40;1.30;;;15.80;99.90;;;;;;4079556;29;20083;-64
2023/09/04 00:44:17;;;;;;;1.60;1.25;;;15.80;99.90;;;;;;4079246;29;20087;-64
2023/09/04 00:46:19;;;;;;;2.42;1.23;;;15.70;99.90;;;;;;4079231;29;20047;-64
2023/09/04 00:48:20;;;;;;;3.67;1.13;;;15.70;99.90;;;;;;4080251;29;20099;-65
2023/09/04 00:50:23;;;;;;;1.20;1.10;;;15.70;99.90;;;;;;4078055;29;20035;-64
2023/09/04 00:52:25;;;;;;;1.42;1.23;;;15.70;99.90;;;;;;4079993;29;20040;-64
2023/09/04 00:54:28;;;;;;;1.33;1.23;;;15.60;99.90;;;;;;4079829;29;20028;-62
2023/09/04 00:56:30;;;;;;;1.50;1.40;;;15.60;99.90;;;;;;4080406;29;20090;-65
2023/09/04 00:58:32;;;;;;;2.38;1.17;;;15.60;99.90;;;;;;4083562;29;20548;-63
2023/09/04 01:00:33;;;;;;;1.83;1.27;;;15.60;99.90;;;;;;4082427;29;20043;-66
2023/09/04 01:02:34;;;;;;;1.20;1.10;;;15.60;99.90;;;;;;4083334;29;20047;-65
2023/09/04 01:04:35;;;;;;;2.08;1.05;;;15.60;99.90;;;;;;4082558;29;20481;-64
2023/09/04 01:06:37;;;;;;;2.90;1.02;;;15.60;99.90;;;;;;4083307;29;20568;-65
2023/09/04 01:08:38;;;;;;;1.25;1.15;;;15.60;99.90;;;;;;4082430;29;20047;-60
2023/09/04 01:10:54;;;;;;;3.63;1.60;;;15.60;99.90;;;;;;4083733;29;20079;-65
2023/09/04 01:13:03;;;;;;;1.20;1.10;;;15.70;99.90;;;;;;4082595;29;20023;-63
2023/09/04 01:15:05;;;;;;;3.08;1.25;;;15.70;99.90;;;;;;4083707;29;20468;-67
2023/09/04 01:17:07;;;;;;;1.55;1.45;;;15.70;99.90;;;;;;4081800;29;20060;-64
2023/09/04 01:19:10;;;;;;;1.50;1.38;;;15.80;99.90;;;;;;4083605;29;20035;-65
2023/09/04 01:21:11;;;;;;;1.10;1.02;;;15.70;99.90;;;;;;4082542;29;20428;-63
2023/09/04 01:23:13;;;;;;;1.42;1.20;;;15.70;99.90;;;;;;4083564;29;20500;-65
2023/09/04 01:25:15;;;;;;;4.88;1.30;;;15.70;99.90;;;;;;4082387;29;20087;-61
2023/09/04 01:27:27;;;;;;;1.50;1.40;;;15.70;99.90;;;;;;4083329;29;20079;-65
2023/09/04 01:29:44;;;;;;;1.30;1.20;;;15.70;99.90;;;;;;4082120;29;20039;-65
2023/09/04 01:32:15;;;;;;;1.58;1.48;;;15.70;99.90;;;;;;4082720;29;20086;-65
2023/09/04 01:34:19;;;;;;;;;;;15.70;99.90;;;;;;4082811;29;20062;-63
2023/09/04 01:36:25;;;;;;;1.35;1.25;;;15.70;99.90;;;;;;4083328;29;19922;-65
2023/09/04 01:38:27;;;;;;;1.30;1.20;;;15.70;99.90;;;;;;4082297;29;20036;-66
2023/09/04 01:40:28;;;;;;;1.08;1.00;;;15.70;99.90;;;;;;4083362;29;20024;-64
2023/09/04 01:42:29;;;;;;;1.60;1.50;;;15.80;99.90;;;;;;4082301;29;20377;-65
2023/09/04 01:44:31;;;;;;;4.45;1.52;;;15.80;99.90;;;;;;4083033;29;20051;-65
2023/09/04 01:46:33;;;;;;;1.27;1.20;;;15.80;99.90;;;;;;4082365;29;20060;-65
2023/09/04 01:48:35;;;;;;;1.30;1.20;;;15.80;99.90;;;;;;4082535;29;20075;-66
2023/09/04 01:50:36;;;;;;;1.95;1.27;;;15.90;99.90;;;;;;4082450;29;20027;-66
2023/09/04 01:52:37;;;;;;;1.73;1.17;;;15.90;99.90;;;;;;4082246;29;20440;-67
2023/09/04 01:54:38;;;;;;;1.25;1.08;;;15.90;99.90;;;;;;4083014;29;20079;-65
2023/09/04 01:56:40;;;;;;;1.05;1.00;;;15.90;99.90;;;;;;4081769;29;20047;-64
2023/09/04 01:58:41;;;;;;;1.33;0.98;;;15.90;99.90;;;;;;4082066;29;20095;-61
2023/09/04 02:00:43;;;;;;;1.38;1.27;;;15.90;99.90;;;;;;4081631;29;20110;-65
2023/09/04 02:02:44;;;;;;;1.23;1.10;;;15.90;99.90;;;;;;4082789;29;20044;-62
2023/09/04 02:04:45;;;;;;;2.42;1.20;;;15.90;99.90;;;;;;4081323;29;20102;-64
2023/09/04 02:06:46;;;;;;;1.60;0.80;;;15.90;99.90;;;;;;4082837;29;20403;-64
2023/09/04 02:08:47;;;;;;;1.27;1.17;;;15.90;99.90;;;;;;4081147;29;20028;-62
2023/09/04 02:10:49;;;;;;;1.55;1.27;;;15.90;99.90;;;;;;4082553;29;20111;-64
2023/09/04 02:12:50;;;;;;;2.20;1.20;;;15.90;99.90;;;;;;4081618;29;20083;-65
2023/09/04 02:14:52;;;;;;;1.23;1.13;;;15.90;99.90;;;;;;4082507;29;20031;-60
2023/09/04 02:16:53;;;;;;;1.95;1.00;;;15.90;99.90;;;;;;4081267;29;20147;-65
2023/09/04 02:18:55;;;;;;;1.50;1.00;;;15.90;99.90;;;;;;4082021;29;20575;-66
2023/09/04 02:20:56;;;;;;;1.20;1.10;;;15.90;99.90;;;;;;4081603;29;20071;-64
2023/09/04 02:22:58;;;;;;;5.30;1.25;;;15.90;99.90;;;;;;4081538;29;20485;-65
2023/09/04 02:24:59;;;;;;;1.25;1.02;;;15.80;99.90;;;;;;4082186;29;20091;-61
2023/09/04 02:27:00;;;;;;;0.90;0.90;;;15.80;99.90;;;;;;4081302;29;20087;-62
2023/09/04 02:29:01;;;;;;;1.33;1.15;;;15.90;99.90;;;;;;4082428;29;20091;-66
2023/09/04 02:31:08;;;;;;;1.42;0.80;;;15.90;99.90;;;;;;4080807;29;20047;-64
2023/09/04 02:33:10;;;;;;;1.08;0.95;;;15.90;99.90;;;;;;4082316;29;20032;-64
2023/09/04 02:35:11;;;;;;;2.45;1.10;;;15.90;99.90;;;;;;4081329;29;20504;-64
2023/09/04 02:37:12;;;;;;;1.20;0.93;;;16.00;99.90;;;;;;4082545;29;20044;-64
2023/09/04 02:39:14;;;;;;;1.55;1.08;;;16.10;99.90;;;;;;4081178;29;20099;-63
2023/09/04 02:41:15;;;;;;;2.55;1.33;;;16.10;99.90;;;;;;4082448;29;20043;-60
2023/09/04 02:43:16;;;;;;;1.70;1.00;;;16.00;99.90;;;;;;4080942;29;20098;-65
2023/09/04 02:45:17;;;;;;;2.25;1.15;;;16.00;99.90;;;;;;4081876;29;20095;-65
2023/09/04 02:47:18;;;;;;;1.35;1.00;;;15.90;99.90;;;;;;4080969;29;20048;-59
2023/09/04 02:49:19;;;;;;;1.77;1.00;;;15.80;99.90;;;;;;4080115;29;20071;-66
2023/09/04 02:51:20;;;;;;;0.95;0.95;;;15.80;99.90;;;;;;4081414;29;20020;-66
2023/09/04 02:53:22;;;;;;;1.20;0.75;;;15.80;99.90;;;;;;4081028;29;20389;-65
2023/09/04 02:55:23;;;;;;;2.78;1.10;;;15.80;99.90;;;;;;4081619;29;20024;-66
2023/09/04 02:57:24;;;;;;;1.98;1.10;;;15.80;99.90;;;;;;4080481;29;20115;-66
2023/09/04 02:59:26;;;;;;;3.80;1.00;;;15.80;99.90;;;;;;4081799;29;20517;-61
2023/09/04 03:01:27;;;;;;;1.25;0.90;;;15.80;99.90;;;;;;4080721;29;20106;-64
2023/09/04 03:03:28;;;;;;;1.55;1.10;;;15.80;99.90;;;;;;4081854;29;20027;-63
2023/09/04 03:05:29;;;;;;;1.20;0.90;;;15.80;99.90;;;;;;4080885;29;20084;-61
2023/09/04 03:07:30;;;;;;;1.00;0.90;;;15.70;99.90;;;;;;4082025;29;20102;-65
2023/09/04 03:09:32;;;;;;;3.58;1.10;;;15.80;99.90;;;;;;4080686;29;20028;-65
2023/09/04 03:11:33;;;;;;;1.10;1.00;;;15.80;99.90;;;;;;4080286;29;20476;-63
2023/09/04 03:13:34;;;;;;;1.88;1.10;;;15.80;99.90;;;;;;4080448;29;20095;-60
2023/09/04 03:15:35;;;;;;;1.23;0.75;;;15.80;99.90;;;;;;4081604;29;20036;-63
2023/09/04 03:17:36;;;;;;;1.58;1.15;;;15.80;99.90;;;;;;4080312;29;20051;-64
2023/09/04 03:19:37;;;;;;;1.20;0.88;;;15.80;99.90;;;;;;4080839;29;20059;-65
2023/09/04 03:21:38;;;;;;;1.40;1.30;;;15.70;99.90;;;;;;4079883;29;20699;-63
2023/09/04 03:23:39;;;;;;;1.98;0.95;;;15.70;99.90;;;;;;4080771;29;20091;-65
2023/09/04 03:25:40;;;;;;;1.15;1.02;;;15.70;99.90;;;;;;4081066;29;20087;-65
2023/09/04 03:27:41;;;;;;;2.85;1.08;;;15.60;99.90;;;;;;4080261;29;21024;-60
2023/09/04 03:29:43;;;;;;;1.00;0.90;;;15.60;99.90;;;;;;4081475;29;20504;-60
2023/09/04 03:31:45;;;;;;;2.70;1.30;;;15.60;99.90;;;;;;4080461;29;20098;-64
2023/09/04 03:33:47;;;;;;;1.70;1.27;;;15.60;99.90;;;;;;4081612;29;20483;-64
2023/09/04 03:35:48;;;;;;;1.90;1.00;;;15.60;99.90;;;;;;4080339;29;20103;-61
2023/09/04 03:37:49;;;;;;;0.90;0.90;;;15.60;99.90;;;;;;4081351;29;20071;-65
2023/09/04 03:39:50;;;;;;;3.33;1.23;;;15.60;99.90;;;;;;4080078;29;20091;-64
2023/09/04 03:41:52;;;;;;;4.97;1.95;;;15.50;99.90;;;;;;4081331;29;20571;-65
2023/09/04 03:43:53;;;;;;;1.83;1.05;;;15.50;99.90;;;;;;4080197;29;20560;-65
2023/09/04 03:45:54;;;;;;;1.20;1.05;;;15.50;99.90;;;;;;4081084;29;20095;-66
2023/09/04 03:47:55;;;;;;;2.90;0.98;;;15.50;99.90;;;;;;4080083;29;20047;-66
2023/09/04 03:49:56;;;;;;;1.45;0.90;;;15.50;99.90;;;;;;4080693;29;20047;-65
2023/09/04 04:02:31;;;;;;;2.15;1.35;;;15.50;99.90;;;;;;4175753;28;20427;-62
2023/09/04 04:04:32;;;;;;;4.88;2.28;;;15.50;99.90;;;;;;4174010;28;20371;-65
2023/09/04 04:06:34;;;;;;;3.13;1.48;;;15.50;99.90;;;;;;4175316;28;20037;-61
2023/09/04 04:08:35;;;;;;;3.83;1.60;;;15.50;99.90;;;;;;4173877;28;20041;-65
2023/09/04 04:10:37;;;;;;;3.22;1.20;;;15.50;99.90;;;;;;4175209;28;20156;-62
2023/09/04 04:12:38;;;;;;;1.95;1.33;;;15.60;99.90;;;;;;4174045;28;20136;-64
2023/09/04 04:14:39;;;;;;;2.70;1.67;;;15.50;99.90;;;;;;4174962;28;20477;-63
2023/09/04 04:16:40;;;;;;;1.67;1.58;;;15.50;99.90;;;;;;4173657;28;20112;-61
2023/09/04 04:18:41;;;;;;;2.55;1.27;;;15.60;99.90;;;;;;4174872;28;20034;-63
2023/09/04 04:20:44;;;;;;;1.45;1.33;;;15.60;99.90;;;;;;4173862;28;20022;-63
2023/09/04 04:22:45;;;;;;;2.88;1.42;;;15.60;99.90;;;;;;4174580;28;20091;-64
2023/09/04 04:24:47;;;;;;;1.63;1.40;;;15.70;99.90;;;;;;4173999;28;20457;-65
2023/09/04 04:26:48;;;;;;;1.35;1.10;;;15.70;99.90;;;;;;4174437;28;20041;-65
2023/09/04 04:28:49;;;;;;;2.60;1.40;;;15.70;99.90;;;;;;4174095;28;20385;-64
2023/09/04 04:30:50;;;;;;;2.10;1.60;;;15.70;99.90;;;;;;4173677;28;20057;-64
2023/09/04 04:32:51;;;;;;;1.65;1.50;;;15.70;99.90;;;;;;4174367;28;20497;-64
2023/09/04 04:34:52;;;;;;;2.95;1.48;;;15.60;99.90;;;;;;4173612;28;20170;-62
2023/09/04 04:36:56;;;;;;;1.35;1.23;;;15.70;99.90;;;;;;4174411;28;20083;-64
2023/09/04 04:38:57;;;;;;;1.42;1.33;;;15.70;99.90;;;;;;4172928;28;20029;-65
2023/09/04 04:40:58;;;;;;;2.30;1.70;;;15.60;99.90;;;;;;4174349;28;20170;-64
2023/09/04 04:42:59;;;;;;;5.90;1.52;;;15.70;99.90;;;;;;4173242;28;20041;-61
2023/09/04 04:45:02;;;;;;;2.88;1.42;;;15.60;99.90;;;;;;4174173;28;20087;-63
2023/09/04 04:47:03;;;;;;;1.25;1.15;;;15.70;99.90;;;;;;4172909;28;20080;-62
2023/09/04 04:49:05;;;;;;;2.13;1.05;;;15.60;99.90;;;;;;4173904;28;20041;-61
2023/09/04 04:51:06;;;;;;;1.10;1.00;;;15.70;99.90;;;;;;4173083;28;20126;-61
2023/09/04 04:53:07;;;;;;;4.47;1.20;;;15.70;99.90;;;;;;4173749;28;20064;-63
2023/09/04 04:55:11;;;;;;;1.38;1.27;;;15.80;99.90;;;;;;4173475;28;20021;-60
2023/09/04 04:57:13;;;;;;;4.97;1.48;;;15.80;99.90;;;;;;4173960;28;20032;-66
2023/09/04 04:59:14;;;;;;;2.55;1.25;;;15.80;99.90;;;;;;4174157;28;20029;-65
2023/09/04 05:01:15;;;;;;;5.22;1.48;;;16.00;99.90;;;;;;4173152;28;20131;-64
2023/09/04 05:03:16;;;;;;;2.67;1.73;;;16.10;99.90;;;;;;4163849;28;20030;-63
2023/09/04 05:05:18;;;;;;;1.90;1.38;;;16.20;99.90;;;;;;4161950;28;20131;-62
2023/09/04 05:07:19;;;;;;;3.25;1.35;;;16.40;99.90;;;;;;4163182;28;20080;-62
2023/09/04 05:09:21;;;;;;;2.28;1.10;;;16.50;99.90;;;;;;4162154;28;20090;-64
2023/09/04 05:11:22;;;;;;;1.83;1.30;;;16.70;99.90;;;;;;4163101;28;20099;-65
2023/09/04 05:13:23;;;;;;;2.72;1.17;;;16.90;99.90;;;;;;4161897;28;20099;-65
2023/09/04 05:15:24;;;;;;;2.53;1.35;;;17.00;99.90;;;;;;4162938;28;20046;-62
2023/09/04 05:17:25;;;;;;;4.85;3.08;;;17.00;99.90;;;;;;4161973;28;20033;-64
2023/09/04 05:19:29;;;;;;;1.77;1.60;;;17.00;99.90;;;;;;4163167;28;20076;-65
2023/09/04 05:21:30;;;;;;;3.05;1.60;;;17.10;99.90;;;;;;4161794;28;20041;-64
2023/09/04 05:23:31;;;;;;;5.32;1.20;;;17.10;99.90;;;;;;4163026;28;20033;-65
2023/09/04 05:25:32;;;;;;;2.17;1.40;;;17.50;99.90;;;;;;4161734;28;20088;-64
2023/09/04 05:27:33;;;;;;;3.75;1.50;;;18.30;99.90;;;;;;4162420;28;20045;-64
2023/09/04 05:29:34;;;;;;;1.63;1.30;;;18.90;99.90;;;;;;4162350;28;20033;-64
2023/09/04 05:31:35;;;;;;;3.60;1.05;;;19.70;99.90;;;;;;4161876;28;20481;-65
2023/09/04 05:33:36;;;;;;;1.40;1.30;;;20.20;99.90;;;;;;4162452;28;20425;-64
2023/09/04 05:35:38;;;;;;;2.85;1.00;;;20.80;99.90;;;;;;4161505;28;20033;-64
2023/09/04 05:37:39;;;;;;;1.58;1.05;;;21.60;99.90;;;;;;4162818;28;20088;-64
2023/09/04 05:39:40;;;;;;;1.60;0.93;;;21.80;99.90;;;;;;4161653;28;20033;-62
2023/09/04 05:41:41;;;;;;;1.17;1.00;;;22.00;99.90;;;;;;4162662;28;20088;-63
2023/09/04 05:43:42;;;;;;;1.27;1.17;;;22.20;99.90;;;;;;4160057;28;20083;-64
2023/09/04 05:45:43;;;;;;;2.47;1.30;;;22.40;99.90;;;;;;4162813;28;20421;-63
2023/09/04 05:47:44;;;;;;;1.52;1.20;;;22.70;99.90;;;;;;4161111;28;20064;-62
2023/09/04 05:49:45;;;;;;;4.15;1.05;;;22.70;99.90;;;;;;4162401;28;20461;-63
2023/09/04 05:51:46;;;;;;;1.02;0.95;;;22.90;99.90;;;;;;4161212;28;20053;-64
2023/09/04 05:53:48;;;;;;;1.63;0.80;;;23.10;99.90;;;;;;4162396;28;20456;-64
2023/09/04 05:56:06;;;;;;;1.60;1.00;;;23.30;99.90;;;;;;4161543;28;20041;-64
2023/09/04 05:58:07;;;;;;;1.15;0.88;;;23.80;99.90;;;;;;4162225;28;20041;-63
2023/09/04 06:00:09;;;;;;;1.30;0.80;;;24.00;99.90;;;;;;4161449;28;20060;-65
2023/09/04 06:04:21;;;;;;;3.58;0.80;;;23.30;99.90;;;;;;4210244;22;20056;-64
2023/09/04 06:06:24;;;;;;;4.90;0.88;;;23.20;99.90;;;;;;4193541;28;20044;-65
2023/09/04 06:08:25;;;;;;;0.80;0.80;;;23.30;99.90;;;;;;4195404;28;20463;-66
2023/09/04 06:10:26;;;;;;;1.45;0.52;;;23.00;99.90;;;;;;4193248;28;20029;-65
2023/09/04 06:12:28;;;;;;;1.38;1.10;;;23.30;99.90;;;;;;4195124;28;20067;-64
2023/09/04 06:14:29;;;;;;;1.48;0.80;;;23.20;99.90;;;;;;4192407;28;20066;-65
2023/09/04 06:16:30;;;;;;;3.22;1.10;;;23.90;99.90;;;;;;4194357;28;20036;-66
2023/09/04 06:18:31;;;;;;;0.85;0.82;;;24.70;99.90;;;;;;4193643;28;20036;-65
2023/09/04 06:20:32;;;;;;;1.20;1.10;;;25.00;99.90;;;;;;4194893;28;20434;-66
2023/09/04 06:22:33;;;;;;;1.27;0.95;;;25.00;99.90;;;;;;4193373;28;20146;-66
2023/09/04 06:24:35;;;;;;;2.80;0.88;;;25.30;99.90;;;;;;4193438;28;20044;-66
2023/09/04 06:26:36;;;;;;;0.88;0.88;;;25.60;99.90;;;;;;4193541;28;20093;-64
2023/09/04 06:28:37;;;;;;;1.10;0.60;;;25.60;99.90;;;;;;4193467;28;20488;-66
2023/09/04 06:30:38;;;;;;;2.25;0.75;;;25.80;99.90;;;;;;4193791;28;20040;-66
2023/09/04 06:32:39;;;;;;;0.95;0.60;;;25.90;99.90;;;;;;4193551;28;20476;-65
2023/09/04 06:34:40;;;;;;;3.20;0.70;;;25.90;99.90;;;;;;4195018;28;20074;-66
2023/09/04 06:36:42;;;;;;;1.00;0.70;;;26.40;99.90;;;;;;4193654;28;20406;-64
2023/09/04 06:38:43;;;;;;;3.88;0.70;;;26.10;99.90;;;;;;4193932;28;20090;-66
2023/09/04 06:40:44;;;;;;;1.17;0.60;;;25.80;99.90;;;;;;4192590;28;20045;-64
2023/09/04 06:42:45;;;;;;;0.70;0.70;;;26.10;99.90;;;;;;4193846;28;20032;-65
2023/09/04 06:44:46;;;;;;;1.23;0.90;;;25.90;99.90;;;;;;4192582;28;20028;-66
2023/09/04 06:46:47;;;;;;;0.98;0.80;;;25.30;99.90;;;;;;4193323;28;20102;-65
2023/09/04 06:48:48;;;;;;;1.77;0.90;;;25.10;99.90;;;;;;4193221;28;20090;-64
2023/09/04 06:50:51;;;;;;;0.85;0.82;;;25.10;99.90;;;;;;4193395;28;20147;-63
2023/09/04 06:52:52;;;;;;;1.13;0.90;;;24.70;99.90;;;;;;4193212;28;20475;-60
2023/09/04 06:54:53;;;;;;;1.52;0.55;;;25.10;99.90;;;;;;4193206;28;20424;-61
2023/09/04 06:56:54;;;;;;;0.80;0.60;;;25.20;99.90;;;;;;4193063;28;20444;-61
2023/09/04 06:58:56;;;;;;;2.70;0.88;;;24.70;99.90;;;;;;4193710;28;20431;-63
2023/09/04 07:00:57;;;;;;;1.92;0.85;;;24.60;99.90;;;;;;4193382;28;20044;-63
2023/09/04 07:02:58;;;;;;;1.25;0.65;;;24.80;99.90;;;;;;4192925;28;20090;-61
2023/09/04 07:04:59;;;;;;;1.35;0.90;;;24.70;99.90;;;;;;4194353;28;20020;-61
2023/09/04 07:07:00;;;;;;;2.00;0.88;;;24.30;99.90;;;;;;4193212;28;20025;-64
2023/09/04 07:09:01;;;;;;;1.15;0.75;;;24.50;99.90;;;;;;4193655;28;20121;-60
2023/09/04 07:11:02;;;;;;;1.73;0.90;;;24.40;99.90;;;;;;4192974;28;20093;-60
2023/09/04 07:13:03;;;;;;;1.38;1.20;;;24.00;99.90;;;;;;4194142;28;20422;-61
2023/09/04 07:15:05;;;;;;;2.42;0.90;;;23.70;99.90;;;;;;4193061;28;20032;-61
2023/09/04 07:17:06;;;;;;;1.63;0.90;;;23.40;99.90;;;;;;4194212;28;20430;-62
2023/09/04 07:19:07;;;;;;;2.17;0.82;;;23.10;99.90;;;;;;4192132;28;20040;-64
2023/09/04 07:21:08;;;;;;;2.35;1.02;;;22.70;99.90;;;;;;4194126;28;20025;-64
2023/09/04 07:23:10;;;;;;;0.80;0.70;;;22.50;99.90;;;;;;4192261;28;20040;-62
2023/09/04 07:25:11;;;;;;;1.25;0.90;;;22.30;99.90;;;;;;4192338;28;20090;-62
2023/09/04 07:27:12;;;;;;;2.15;1.20;;;22.00;99.90;;;;;;4192629;28;20418;-60
2023/09/04 07:29:13;;;;;;;0.90;0.90;;;21.70;99.90;;;;;;4193298;28;20028;-65
2023/09/04 07:31:19;;;;;;;1.73;1.20;;;21.40;99.90;;;;;;4193552;28;20040;-62
2023/09/04 07:33:20;;;;;;;2.65;1.02;;;21.30;99.90;;;;;;4192834;28;20472;-64
2023/09/04 07:35:22;;;;;;;2.15;1.10;;;21.20;99.90;;;;;;4193814;28;20040;-64
2023/09/04 07:37:25;;;;;;;2.53;1.40;;;21.10;99.90;;;;;;4192746;28;20113;-63
2023/09/04 07:39:27;;;;;;;2.05;1.15;;;21.00;99.90;;;;;;4193515;28;20048;-63
2023/09/04 07:41:28;;;;;;;2.35;0.93;;;21.00;99.90;;;;;;4192391;28;20082;-65
2023/09/04 07:43:32;;;;;;;1.30;1.17;;;21.00;99.90;;;;;;4192850;28;20410;-60
2023/09/04 07:45:33;;;;;;;1.92;1.10;;;20.90;99.90;;;;;;4192798;28;20082;-61
2023/09/04 07:47:34;;;;;;;1.35;1.25;;;20.90;99.90;;;;;;4193739;28;20430;-62
2023/09/04 07:49:35;;;;;;;2.42;1.38;;;20.90;99.90;;;;;;4192688;28;20042;-62
2023/09/04 07:51:37;;;;;;;4.10;1.60;;;21.00;99.90;;;;;;4192945;28;20094;-65
2023/09/04 07:53:38;;;;;;;1.25;1.15;;;21.00;99.90;;;;;;4192511;28;20040;-62
2023/09/04 07:55:39;;;;;;;1.83;1.10;;;20.90;99.90;;;;;;4192710;28;20106;-62
2023/09/04 07:57:40;;;;;;;2.58;1.35;;;20.90;99.90;;;;;;4192971;28;20429;-62
2023/09/04 07:59:41;;;;;;;1.63;1.52;;;20.80;99.90;;;;;;4193149;28;20086;-61
2023/09/04 08:01:42;;;;;;;1.88;1.67;;;20.80;99.90;;;;;;4193098;28;20033;-59
2023/09/04 08:03:44;;;;;;;1.50;1.40;;;20.80;99.90;;;;;;4192141;28;20086;-61
2023/09/04 08:05:45;;;;;;;1.40;1.30;;;20.80;99.90;;;;;;4193597;28;20028;-61
2023/09/04 08:07:46;;;;;;;2.28;1.60;;;20.80;99.90;;;;;;4191779;28;20376;-59
2023/09/04 08:09:47;;;;;;;3.22;1.90;;;20.90;99.90;;;;;;4192919;28;20047;-60
2023/09/04 08:11:49;;;;;;;3.55;1.50;;;20.90;99.90;;;;;;4192323;28;20565;-60
2023/09/04 08:13:50;;;;;;;3.40;1.42;;;20.90;99.90;;;;;;4193460;28;20033;-63
2023/09/04 08:15:51;;;;;;;1.50;1.40;;;21.00;99.90;;;;;;4192517;28;20549;-61
2023/09/04 08:17:53;;;;;;;2.33;1.30;;;21.30;99.90;;;;;;4193336;28;20082;-60
2023/09/04 08:19:54;;;;;;;2.00;1.42;;;21.40;99.90;;;;;;4192192;28;20074;-61
2023/09/04 08:21:57;;;;;;;1.83;1.58;;;21.70;99.90;;;;;;4192485;28;20109;-62
2023/09/04 08:23:58;;;;;;;4.70;1.48;;;21.90;99.90;;;;;;4191966;28;20032;-64
2023/09/04 08:26:00;;;;;;;3.15;1.63;;;22.00;99.90;;;;;;4192605;28;20037;-62
2023/09/04 08:28:03;;;;;;;4.90;1.50;;;22.10;99.90;;;;;;4191633;28;20048;-59
2023/09/04 08:30:04;;;;;;;1.95;1.02;;;22.20;99.90;;;;;;4192341;28;20561;-63
2023/09/04 08:32:05;;;;;;;5.07;1.70;;;22.10;99.90;;;;;;4191376;28;20078;-61
2023/09/04 08:34:07;;;;;;;8.82;2.20;;;22.00;99.90;;;;;;4191486;28;20090;-62
2023/09/04 08:36:08;;;;;;;3.67;1.95;;;21.70;99.90;;;;;;4192903;28;20101;-65
2023/09/04 08:38:09;;;;;;;1.80;1.70;;;21.50;99.90;;;;;;4193055;28;20362;-60
2023/09/04 08:40:10;;;;;;;3.30;2.20;;;21.40;99.90;;;;;;4195690;28;20492;-62
2023/09/04 08:42:12;;;;;;;7.15;1.80;;;21.30;99.90;;;;;;4194947;28;20021;-61
2023/09/04 08:44:14;;;;;;;3.42;1.70;;;21.40;99.90;;;;;;4195448;28;20040;-63
2023/09/04 08:46:16;;;;;;;11.95;1.60;;;21.60;99.90;;;;;;4195185;28;20106;-60
2023/09/04 08:48:20;;;;;;;2.92;1.67;;;21.80;99.90;;;;;;4177909;28;20029;-61
2023/09/04 08:50:23;;;;;;;2.38;1.48;;;22.00;99.90;;;;;;4194841;28;20117;-65
2023/09/04 08:52:25;;;;;;;2.88;1.77;;;22.20;99.90;;;;;;4196147;28;20145;-61
2023/09/04 08:54:27;;;;;;;4.70;1.58;;;22.30;99.90;;;;;;4194312;28;20045;-60
2023/09/04 08:56:31;;;;;;;4.18;1.42;;;22.40;99.90;;;;;;4196124;28;20020;-61
2023/09/04 08:58:32;;;;;;;1.20;1.17;;;22.40;99.90;;;;;;4194630;28;20029;-65
2023/09/04 09:00:33;;;;;;;1.90;1.80;;;22.40;99.90;;;;;;4195185;28;20040;-61
2023/09/04 09:02:35;;;;;;;2.83;1.50;;;22.50;99.90;;;;;;4195011;28;20525;-62
2023/09/04 09:04:36;;;;;;;3.42;1.20;;;22.50;99.90;;;;;;4176824;28;20049;-62
2023/09/04 09:06:37;;;;;;;1.88;1.50;;;22.70;99.90;;;;;;4194734;28;20037;-62
2023/09/04 09:08:40;;;;;;;1.15;1.00;;;22.80;99.90;;;;;;4194095;28;20094;-63
2023/09/04 09:10:46;;;;;;;4.57;1.13;;;22.70;99.90;;;;;;4195134;28;20029;-63
2023/09/04 09:12:47;;;;;;;2.38;1.20;;;22.60;99.90;;;;;;4193818;28;20431;-60
2023/09/04 09:14:48;;;;;;;1.65;1.48;;;22.50;99.90;;;;;;4195198;28;20488;-62
2023/09/04 09:17:08;;;;;;;1.45;1.35;;;22.50;99.90;;;;;;4194773;28;20074;-61
2023/09/04 09:19:10;;;;;;;3.05;1.10;;;22.50;99.90;;;;;;4195172;28;20476;-63
2023/09/04 09:21:31;;;;;;;2.45;1.02;;;22.50;99.90;;;;;;4194706;28;20032;-61
2023/09/04 09:23:32;;;;;;;2.72;1.40;;;22.70;99.90;;;;;;4194729;28;20082;-61
2023/09/04 09:25:34;;;;;;;1.95;1.48;;;22.70;99.90;;;;;;4194286;28;20032;-66
2023/09/04 09:27:35;;;;;;;2.42;1.45;;;22.70;99.90;;;;;;4195671;28;20024;-61
2023/09/04 09:29:36;;;;;;;1.40;1.30;;;22.80;99.90;;;;;;4194558;28;20028;-63
2023/09/04 09:31:38;;;;;;;2.75;1.05;;;22.90;99.90;;;;;;4195114;28;20048;-64
2023/09/04 09:33:40;;;;;;;1.20;1.10;;;23.00;99.90;;;;;;4193216;28;20137;-60
2023/09/04 09:35:41;;;;;;;1.63;1.00;;;23.00;99.90;;;;;;4195363;28;20036;-63
2023/09/04 09:37:42;;;;;;;2.58;1.27;;;23.10;99.90;;;;;;4194413;28;20098;-63
2023/09/04 09:39:44;;;;;;;1.80;1.20;;;23.00;99.90;;;;;;4195015;28;20041;-62
2023/09/04 09:41:45;;;;;;;1.73;1.45;;;23.00;99.90;;;;;;4194407;28;20025;-62
2023/09/04 09:43:46;;;;;;;1.65;1.55;;;22.80;99.90;;;;;;4194532;28;20036;-64
2023/09/04 09:45:49;;;;;;;1.80;1.30;;;22.90;99.90;;;;;;4193668;28;20094;-64
2023/09/04 09:47:51;;;;;;;1.38;1.20;;;22.90;99.90;;;;;;4193999;28;20029;-63
2023/09/04 09:49:55;;;;;;;1.95;1.10;;;22.80;99.90;;;;;;4194421;28;20066;-63
2023/09/04 09:51:56;;;;;;;3.42;1.42;;;22.90;99.90;;;;;;4194562;28;20083;-59
2023/09/04 09:53:58;;;;;;;1.30;1.20;;;22.90;99.90;;;;;;4194447;28;20075;-64
2023/09/04 09:55:59;;;;;;;3.10;1.20;;;23.20;99.90;;;;;;4193152;28;20045;-58
2023/09/04 09:58:01;;;;;;;1.27;1.17;;;23.40;99.90;;;;;;4194300;28;20086;-61
2023/09/04 10:00:02;;;;;;;2.47;1.90;;;23.30;99.90;;;;;;4193878;28;20083;-60
2023/09/04 10:02:05;;;;;;;2.58;1.48;;;23.30;99.90;;;;;;4195245;28;20032;-61
2023/09/04 10:04:07;;;;;;;3.70;1.92;;;23.50;99.90;;;;;;4193514;28;20040;-60
2023/09/04 10:06:11;;;;;;;3.28;1.42;;;23.80;99.90;;;;;;4194394;28;20040;-62
2023/09/04 10:08:13;;;;;;;2.05;1.58;;;23.70;99.70;;;;;;4192885;28;20399;-62
2023/09/04 10:10:15;;;;;;;3.42;1.63;;;23.80;99.70;;;;;;4195255;28;20025;-60
2023/09/04 10:12:26;;;;;;;1.25;1.25;;;23.70;99.70;;;;;;4193267;28;20531;-63
2023/09/04 10:14:39;;;;;;;1.52;1.10;;;23.80;99.70;;;;;;4195084;28;20419;-62
2023/09/04 10:17:00;;;;;;;0.98;0.98;;;23.80;99.40;;;;;;4192703;28;20524;-62
2023/09/04 10:19:02;;;;;;;1.52;1.42;;;23.70;99.40;;;;;;4194114;28;20033;-64
2023/09/04 10:21:08;;;;;;;2.58;1.50;;;23.50;99.80;;;;;;4192668;28;20045;-61
2023/09/04 10:23:10;;;;;;;3.25;1.67;;;23.30;99.90;;;;;;4194376;28;20090;-59
2023/09/04 10:25:12;;;;;;;1.55;1.45;;;23.30;99.90;;;;;;4192820;28;20056;-63
2023/09/04 10:27:16;;;;;;;1.70;1.55;;;23.30;99.90;;;;;;4194607;28;20372;-62
2023/09/04 10:29:22;;;;;;;2.25;1.20;;;23.40;99.90;;;;;;4193835;28;20471;-62
2023/09/04 10:31:24;;;;;;;1.80;1.70;;;23.40;99.90;;;;;;4193774;28;20472;-63
2023/09/04 10:33:26;;;;;;;3.33;1.88;;;23.30;99.90;;;;;;4193623;28;20032;-63
2023/09/04 10:35:28;;;;;;;1.83;1.38;;;23.40;99.90;;;;;;4193500;28;20044;-63
2023/09/04 10:37:31;;;;;;;1.55;1.40;;;23.40;99.90;;;;;;4193598;28;20094;-62
2023/09/04 10:39:32;;;;;;;4.10;1.90;;;23.30;99.80;;;;;;4193413;28;20029;-65
2023/09/04 10:41:35;;;;;;;5.57;2.00;;;23.20;99.90;;;;;;4193472;28;20492;-64
2023/09/04 10:43:39;;;;;;;12.50;2.83;;;22.90;99.90;;;;;;4193282;28;20091;-62
2023/09/04 10:45:41;;;;;;;8.75;2.50;;;22.20;99.90;;;;;;4193262;28;20557;-63
2023/09/04 10:47:48;;;;;;;5.50;2.17;;;21.40;99.90;;;;;;4193248;28;20025;-63
2023/09/04 10:49:50;;;;;;;19.80;4.25;;;20.60;99.90;;;;;;4193651;28;20114;-64